This is the latest recevied weather packets stored in our database for station/object G7GQA-4. If no packets are shown the sender has not sent any weather packets the latest 10 day(s).
| Time | Temp. | Humidity | Pressure | Rain* | Wind** | Luminosity | Snow |
|---|---|---|---|---|---|---|---|
| 1777822523 | 18.33° C | 60% | - | 0 mm | - | 175 W/m² | - |
| 1777821923 | 17.78° C | 61% | - | 0 mm | - | 553 W/m² | - |
| 1777821322 | 17.22° C | 65% | - | 0 mm | - | 233 W/m² | - |
| 1777820722 | 17.22° C | 66% | - | 0 mm | - | 530 W/m² | - |
| 1777820123 | 17.22° C | 67% | - | 0 mm | - | 301 W/m² | - |
| 1777819522 | 16.67° C | 68% | - | 0 mm | - | 219 W/m² | - |
| 1777818923 | 16.67° C | 68% | - | 0 mm | - | 165 W/m² | - |
| 1777818323 | 16.67° C | 66% | - | 0 mm | - | 190 W/m² | - |
| 1777817722 | 16.67° C | 65% | - | 0 mm | - | 154 W/m² | - |
| 1777817123 | 17.22° C | 66% | - | 0 mm | - | 86 W/m² | - |
| 1777816523 | 18.33° C | 59% | - | 0 mm | - | 139 W/m² | - |
| 1777815923 | 18.89° C | 58% | - | 0 mm | - | 466 W/m² | - |
| 1777815323 | 19.44° C | 59% | - | 0 mm | - | 613 W/m² | - |
| 1777814723 | 19.44° C | 57% | - | 0 mm | - | 639 W/m² | - |
| 1777814123 | 18.33° C | 60% | - | 0 mm | - | 707 W/m² | - |
| 1777813523 | 17.22° C | 62% | - | 0 mm | - | 468 W/m² | - |
| 1777812923 | 16.67° C | 66% | - | 0 mm | - | 308 W/m² | - |
| 1777812323 | 17.22° C | 66% | - | 0 mm | - | 249 W/m² | - |
| 1777811723 | 16.67° C | 68% | - | 0 mm | - | 287 W/m² | - |
| 1777811135 | 16.67° C | 66% | - | 0 mm | - | 359 W/m² | - |
| 1777810523 | 16.67° C | 66% | - | 0 mm | - | 270 W/m² | - |
| 1777809923 | 16.11° C | 67% | - | 0 mm | - | 309 W/m² | - |
| 1777809323 | 16.67° C | 65% | - | 0 mm | - | 371 W/m² | - |
| 1777808723 | 16.11° C | 69% | - | 0 mm | - | 330 W/m² | - |
| 1777808123 | 16.11° C | 68% | - | 0 mm | - | 202 W/m² | - |
* Rain latest hour (hover to see other rain measurements)
** Current wind speed in m/s (hover to see current wind gust speed)